Time;durP1;ratioP1;P1;durP2;ratioP2;P2;SDS_P1;SDS_P2;PMS_P1;PMS_P2;Temp;Humidity;BMP_temperature;BMP_pressure;BME280_temperature;BME280_humidity;BME280_pressure;Samples;Min_cycle;Max_cycle;Signal;HPM_P1;HPM_P2
2022/07/04 00:02:13;;;;;;;9.27;5.72;;;;;;;24.39;nan;95471.28;6230992;22;20111;-83
2022/07/04 00:04:39;;;;;;;11.55;4.90;;;;;;;24.48;nan;95457.53;6231647;22;20016;-83
2022/07/04 00:07:04;;;;;;;7.28;5.13;;;;;;;24.10;nan;95404.03;6258968;22;20034;-83
2022/07/04 00:09:29;;;;;;;7.80;5.07;;;;;;;24.54;nan;95475.88;6232136;22;20024;-83
2022/07/04 00:11:55;;;;;;;7.63;4.80;;;;;;;24.55;nan;95461.19;6231324;22;20453;-83
2022/07/04 00:14:20;;;;;;;9.95;4.45;;;;;;;24.51;nan;95482.00;6260156;22;20070;-82
2022/07/04 00:16:46;;;;;;;10.60;4.90;;;;;;;24.20;nan;95454.97;6233952;22;20098;-83
2022/07/04 00:19:11;;;;;;;13.00;4.68;;;;;;;23.83;nan;95417.34;6234457;22;20104;-83
2022/07/04 00:21:37;;;;;;;7.97;4.60;;;;;;;23.73;nan;95412.47;6231322;22;20462;-83
2022/07/04 00:24:02;;;;;;;8.93;4.10;;;;;;;23.86;nan;95432.13;6259333;22;20091;-82
2022/07/04 00:26:28;;;;;;;7.30;4.00;;;;;;;23.71;nan;95400.44;6259171;22;20007;-83
2022/07/04 00:28:53;;;;;;;8.18;3.90;;;;;;;23.55;nan;95395.03;6232146;22;20021;-83
2022/07/04 00:31:19;;;;;;;6.65;4.00;;;;;;;24.30;nan;95480.75;6259008;22;20565;-84
2022/07/04 00:33:44;;;;;;;14.02;4.00;;;;;;;24.42;nan;95494.94;6258638;22;20086;-83
2022/07/04 00:36:10;;;;;;;6.95;4.40;;;;;;;24.31;nan;95479.59;6230843;22;20019;-83
2022/07/04 00:38:35;;;;;;;11.88;4.40;;;;;;;24.37;nan;95489.03;6259297;22;20340;-83
2022/07/04 00:41:01;;;;;;;11.20;4.43;;;;;;;24.00;nan;95451.41;6230877;22;20012;-83
2022/07/04 00:43:28;;;;;;;7.95;4.32;;;;;;;24.33;nan;95478.13;6230590;22;20487;-82
2022/07/04 00:45:54;;;;;;;11.52;4.28;;;;;;;24.01;nan;95484.69;6231456;22;20043;-82
2022/07/04 00:48:20;;;;;;;10.75;4.30;;;;;;;23.50;nan;95379.03;6259374;22;20026;-82
2022/07/04 00:50:46;;;;;;;9.57;3.85;;;;;;;23.47;nan;95380.50;6230808;22;20054;-82
2022/07/04 00:53:15;;;;;;;10.60;4.05;;;;;;;24.20;nan;95479.34;6231174;22;20537;-82
2022/07/04 00:55:42;;;;;;;10.50;3.70;;;;;;;23.93;nan;95461.28;6259317;22;20052;-82
2022/07/04 00:58:07;;;;;;;15.32;3.75;;;;;;;24.00;nan;95461.44;6248714;22;20042;-83
2022/07/04 01:00:33;;;;;;;8.57;3.88;;;;;;;23.81;nan;95433.16;6256319;22;20438;-83
2022/07/04 01:02:59;;;;;;;5.75;3.20;;;;;;;23.30;nan;95363.81;6255431;22;20043;-82
2022/07/04 01:05:24;;;;;;;6.10;3.13;;;;;;;23.93;nan;95470.19;6258060;22;20008;-82
2022/07/04 01:07:50;;;;;;;7.10;3.08;;;;;;;23.36;nan;95365.13;6255903;22;20018;-82
2022/07/04 01:10:16;;;;;;;10.55;3.97;;;;;;;23.92;nan;95468.63;6255964;22;20026;-83
2022/07/04 01:12:41;;;;;;;13.93;3.78;;;;;;;23.14;nan;95344.88;6256335;22;20027;-82
2022/07/04 01:15:07;;;;;;;6.43;2.97;;;;;;;23.47;nan;95407.56;6258369;22;20089;-82
2022/07/04 01:17:34;;;;;;;6.82;3.35;;;;;;;23.58;nan;95415.19;6258013;22;20057;-83
2022/07/04 01:19:59;;;;;;;16.08;3.75;;;;;;;23.43;nan;95382.31;6256649;22;20015;-82
2022/07/04 01:22:24;;;;;;;11.90;3.97;;;;;;;23.51;nan;95380.59;6256434;22;20024;-83
2022/07/04 01:24:50;;;;;;;13.60;3.30;;;;;;;23.47;nan;95394.03;6256323;22;20097;-82
2022/07/04 01:27:16;;;;;;;8.55;3.97;;;;;;;23.95;nan;95472.56;6256308;22;20015;-83
2022/07/04 01:29:42;;;;;;;8.52;3.00;;;;;;;23.92;nan;95459.72;6256425;22;20058;-83
2022/07/04 01:32:09;;;;;;;11.10;3.83;;;;;;;23.50;nan;95465.66;6257163;22;20015;-83
2022/07/04 01:34:35;;;;;;;7.65;4.00;;;;;;;23.20;nan;95375.16;6256107;22;20011;-83
2022/07/04 01:37:01;;;;;;;10.23;4.13;;;;;;;23.14;nan;95381.97;6256163;22;20034;-83
2022/07/04 01:39:28;;;;;;;8.10;3.67;;;;;;;23.32;nan;95407.56;6257800;22;20046;-83
2022/07/04 01:41:53;;;;;;;9.07;3.67;;;;;;;23.63;nan;95429.25;6260408;22;20019;-83
2022/07/04 01:44:20;;;;;;;12.25;3.42;;;;;;;22.77;nan;95333.53;6260636;22;20015;-83
2022/07/04 01:46:45;;;;;;;14.57;3.97;;;;;;;23.61;nan;95434.22;6258358;22;20484;-83
2022/07/04 01:49:10;;;;;;;7.00;3.42;;;;;;;23.21;nan;95369.41;6260103;22;20514;-82
2022/07/04 01:51:44;;;;;;;8.10;3.95;;;;;;;23.72;nan;95480.53;6259849;22;20011;-83
2022/07/04 01:54:09;;;;;;;15.13;3.60;;;;;;;23.49;nan;95428.91;6260208;22;20405;-83
2022/07/04 01:56:35;;;;;;;5.07;3.45;;;;;;;23.64;nan;95474.16;6261342;22;20085;-83
2022/07/04 01:59:01;;;;;;;6.55;3.92;;;;;;;23.30;nan;95420.66;6264855;22;20008;-83
2022/07/04 02:01:29;;;;;;;13.75;4.60;;;;;;;22.72;nan;95317.53;6265189;22;20015;-83
2022/07/04 02:03:57;;;;;;;6.13;3.90;;;;;;;23.19;nan;95409.56;6237902;22;20077;-82
2022/07/04 02:06:22;;;;;;;9.85;4.35;;;;;;;22.46;nan;95368.56;6236471;22;20023;-83
2022/07/04 02:14:17;;;;;;;14.00;3.95;;;;;;;22.84;nan;95374.25;6216218;22;20112;-84
2022/07/04 02:16:43;;;;;;;8.10;3.78;;;;;;;23.43;nan;95481.69;6236353;22;20339;-83
2022/07/04 02:19:08;;;;;;;12.30;4.97;;;;;;;23.21;nan;95438.97;6236625;22;20054;-83
2022/07/04 02:21:33;;;;;;;9.40;4.75;;;;;;;23.30;nan;95426.84;6263756;22;20011;-83
2022/07/04 02:23:59;;;;;;;15.60;4.93;;;;;;;23.15;nan;95405.97;6236399;22;20117;-84
2022/07/04 02:26:24;;;;;;;14.55;5.63;;;;;;;23.38;nan;95450.25;6264916;22;20008;-83
2022/07/04 02:28:51;;;;;;;8.35;5.63;;;;;;;23.31;nan;95430.34;6263827;22;20003;-83
2022/07/04 02:31:17;;;;;;;12.25;5.68;;;;;;;23.03;nan;95392.53;6236591;22;20094;-83
2022/07/04 02:33:42;;;;;;;10.57;6.35;;;;;;;23.39;nan;95462.66;6235894;22;20042;-83
2022/07/04 02:36:08;;;;;;;16.95;5.82;;;;;;;22.32;nan;95294.09;6236151;22;20039;-82
2022/07/04 02:38:33;;;;;;;11.20;6.25;;;;;;;23.35;nan;95448.22;6263286;22;20008;-82
2022/07/04 02:40:59;;;;;;;11.38;5.95;;;;;;;23.27;nan;95413.22;6236267;22;20080;-83
2022/07/04 02:43:24;;;;;;;12.38;5.78;;;;;;;23.57;nan;95476.69;6264245;22;20015;-83
2022/07/04 02:45:49;;;;;;;14.07;5.45;;;;;;;22.56;nan;95351.84;6235502;22;20485;-83
2022/07/04 02:48:15;;;;;;;18.52;4.55;;;;;;;23.23;nan;95480.78;6236578;22;20077;-83
2022/07/04 02:50:42;;;;;;;10.13;4.88;;;;;;;22.72;nan;95379.72;6236049;22;20028;-84
2022/07/04 02:53:07;;;;;;;13.02;5.10;;;;;;;23.02;nan;95428.84;6236251;22;20015;-83
2022/07/04 02:55:33;;;;;;;7.47;3.90;;;;;;;22.90;nan;95404.53;6264858;22;20014;-84
2022/07/04 02:57:58;;;;;;;17.27;4.30;;;;;;;22.65;nan;95415.47;6262857;22;20038;-83
2022/07/04 03:00:24;;;;;;;8.75;4.18;;;;;;;22.87;nan;95421.47;6234737;22;20020;-83
2022/07/04 03:02:49;;;;;;;8.32;4.13;;;;;;;23.31;nan;95487.97;6236269;22;20073;-82
2022/07/04 03:05:15;;;;;;;13.50;4.25;;;;;;;22.84;nan;95425.63;6264126;22;20068;-83
2022/07/04 03:07:41;;;;;;;14.88;4.25;;;;;;;23.17;nan;95465.94;6262954;22;20038;-83
2022/07/04 03:10:06;;;;;;;13.68;4.40;;;;;;;22.73;nan;95418.34;6236095;22;20019;-82
2022/07/04 03:12:32;;;;;;;9.15;4.25;;;;;;;23.38;nan;95507.09;6236090;22;20514;-83
2022/07/04 03:14:59;;;;;;;13.15;4.68;;;;;;;23.18;nan;95474.84;6237244;22;20018;-83
2022/07/04 03:17:25;;;;;;;16.30;4.90;;;;;;;22.80;nan;95415.88;6236116;22;20058;-83
2022/07/04 03:19:51;;;;;;;11.73;4.47;;;;;;;23.16;nan;95480.59;6236555;22;20000;-83
2022/07/04 03:22:16;;;;;;;10.65;4.85;;;;;;;23.12;nan;95463.47;6235309;22;20450;-83
2022/07/04 03:24:42;;;;;;;13.75;4.93;;;;;;;23.40;nan;95509.47;6264061;22;20431;-83
2022/07/04 03:27:08;;;;;;;9.40;4.32;;;;;;;23.02;nan;95458.59;6236359;22;20471;-83
2022/07/04 03:29:33;;;;;;;8.00;4.20;;;;;;;23.28;nan;95507.59;6263893;22;20359;-84
2022/07/04 03:31:59;;;;;;;12.15;4.00;;;;;;;22.84;nan;95458.09;6235824;22;20077;-82
2022/07/04 03:34:24;;;;;;;11.95;3.85;;;;;;;22.21;nan;95384.84;6264047;22;20202;-84
2022/07/04 03:36:50;;;;;;;8.52;3.92;;;;;;;23.06;nan;95490.00;6263289;22;20011;-83
2022/07/04 03:39:15;;;;;;;13.27;3.03;;;;;;;22.94;nan;95478.44;6263125;22;20468;-83
2022/07/04 03:41:40;;;;;;;7.65;3.78;;;;;;;22.85;nan;95467.00;6262597;22;20023;-83
2022/07/04 03:44:06;;;;;;;10.32;3.67;;;;;;;22.52;nan;95396.91;6264236;22;20094;-83
2022/07/04 03:46:31;;;;;;;13.32;3.65;;;;;;;22.71;nan;95435.69;6236291;22;20396;-83
2022/07/04 03:48:57;;;;;;;9.80;3.83;;;;;;;22.50;nan;95389.16;6236253;22;20007;-84
2022/07/04 03:51:22;;;;;;;12.95;3.35;;;;;;;23.02;nan;95447.75;6263741;22;20087;-82
2022/07/04 03:53:48;;;;;;;10.18;4.35;;;;;;;22.46;nan;95368.56;6262452;22;20007;-83
2022/07/04 03:56:14;;;;;;;10.10;3.80;;;;;;;22.33;nan;95341.59;6262278;22;20014;-83
2022/07/04 03:58:42;;;;;;;11.60;3.88;;;;;;;23.03;nan;95457.47;6262832;22;20360;-84
2022/07/04 04:01:08;;;;;;;8.75;3.08;;;;;;;23.39;nan;95505.16;6235238;22;20039;-83
2022/07/04 04:06:18;;;;;;;9.25;3.67;;;;;;;22.72;nan;95409.47;6263742;22;20439;-83
2022/07/04 04:08:44;;;;;;;8.05;3.45;;;;;;;22.71;nan;95397.06;6261661;22;20003;-83
2022/07/04 04:11:09;;;;;;;11.80;3.65;;;;;;;23.34;nan;95490.00;6261892;22;20012;-83
2022/07/04 04:13:35;;;;;;;8.40;3.47;;;;;;;23.43;nan;95506.81;6262013;22;20008;-83
2022/07/04 04:16:01;;;;;;;5.90;3.60;;;;;;;23.07;nan;95445.59;6261487;22;20140;-83
2022/07/04 04:18:26;;;;;;;13.35;3.47;;;;;;;23.01;nan;95446.97;6235243;22;20020;-83
2022/07/04 04:20:52;;;;;;;9.35;3.83;;;;;;;23.09;nan;95456.06;6261955;22;20419;-83
2022/07/04 04:23:17;;;;;;;10.30;4.57;;;;;;;22.84;nan;95409.41;6234749;22;20115;-83
2022/07/04 04:25:43;;;;;;;9.15;4.18;;;;;;;23.53;nan;95518.31;6234856;22;20015;-83
2022/07/04 04:28:08;;;;;;;13.90;4.65;;;;;;;23.24;nan;95468.06;6262126;22;20035;-83
2022/07/04 04:30:34;;;;;;;12.13;4.85;;;;;;;23.53;nan;95521.81;6233848;22;20549;-83
2022/07/04 04:32:59;;;;;;;18.58;4.65;;;;;;;23.42;nan;95518.03;6261751;22;20158;-83
2022/07/04 04:35:25;;;;;;;13.73;5.88;;;;;;;23.10;nan;95471.16;6235515;22;20016;-83
2022/07/04 04:37:50;;;;;;;15.55;5.38;;;;;;;23.07;nan;95458.31;6262044;22;20098;-83
2022/07/04 04:40:16;;;;;;;15.32;5.75;;;;;;;22.93;nan;95425.50;6233988;22;20014;-83
2022/07/04 04:42:42;;;;;;;9.57;5.13;;;;;;;22.43;nan;95375.44;6234755;22;20019;-83
2022/07/04 04:45:08;;;;;;;16.10;5.85;;;;;;;22.99;nan;95461.97;6261469;22;20065;-83
2022/07/04 04:47:33;;;;;;;11.48;4.80;;;;;;;22.33;nan;95338.91;6234216;22;20125;-83
2022/07/04 04:50:00;;;;;;;16.45;5.43;;;;;;;23.34;nan;95491.91;6234518;22;20019;-84
2022/07/04 04:52:26;;;;;;;17.98;5.50;;;;;;;22.26;nan;95317.09;6260907;22;20015;-83
2022/07/04 04:54:51;;;;;;;11.60;5.60;;;;;;;23.04;nan;95421.13;6261698;22;20012;-83
2022/07/04 04:57:17;;;;;;;13.52;5.45;;;;;;;23.65;nan;95512.84;6240986;22;20035;-83
2022/07/04 04:59:43;;;;;;;14.88;4.63;;;;;;;23.09;nan;95464.19;6261630;22;20004;-83
2022/07/04 05:02:09;;;;;;;17.13;4.20;;;;;;;23.20;nan;95451.72;6258494;22;20088;-83
2022/07/04 05:04:34;;;;;;;13.73;4.20;;;;;;;23.00;nan;95402.13;6259105;22;20014;-82
2022/07/04 05:07:00;;;;;;;14.13;4.20;;;;;;;22.92;nan;95386.06;6258242;22;20028;-83
2022/07/04 05:09:25;;;;;;;15.80;4.50;;;;;;;23.81;nan;95527.16;6251077;22;20133;-83
2022/07/04 05:11:51;;;;;;;13.90;4.47;;;;;;;23.50;nan;95473.00;6257764;22;20020;-83
2022/07/04 05:14:16;;;;;;;10.57;4.82;;;;;;;23.26;nan;95430.63;6257374;22;20283;-84
2022/07/04 05:16:42;;;;;;;21.67;5.43;;;;;;;23.46;nan;95443.09;6257485;22;20057;-82
2022/07/04 05:19:08;;;;;;;10.60;4.95;;;;;;;23.42;nan;95442.25;6257188;22;20046;-83
2022/07/04 05:21:33;;;;;;;13.05;5.25;;;;;;;23.94;nan;95504.28;6257710;22;20019;-83
2022/07/04 05:23:59;;;;;;;10.70;4.85;;;;;;;23.15;nan;95407.91;6256766;22;20376;-83
2022/07/04 05:26:25;;;;;;;19.27;4.60;;;;;;;23.94;nan;95517.03;6259207;22;20488;-82
2022/07/04 05:28:50;;;;;;;21.73;5.55;;;;;;;23.68;nan;95466.09;6259404;22;20019;-83
2022/07/04 05:31:16;;;;;;;15.25;4.03;;;;;;;23.77;nan;95505.41;6260515;22;20023;-82
2022/07/04 05:33:41;;;;;;;18.58;4.80;;;;;;;23.67;nan;95489.69;6260485;22;20089;-83
2022/07/04 05:36:07;;;;;;;12.88;4.15;;;;;;;23.32;nan;95426.50;6267017;22;20012;-83
2022/07/04 05:38:32;;;;;;;11.00;4.03;;;;;;;23.98;nan;95521.41;6265137;22;20019;-83
2022/07/04 05:40:58;;;;;;;14.95;3.65;;;;;;;23.46;nan;95459.34;6257316;22;20417;-83
2022/07/04 05:43:25;;;;;;;15.55;4.55;;;;;;;23.93;nan;95513.53;6259012;22;20008;-83
2022/07/04 05:45:51;;;;;;;12.57;3.47;;;;;;;23.98;nan;95499.72;6254826;22;20040;-83
2022/07/04 05:48:17;;;;;;;14.77;2.97;;;;;;;23.77;nan;95466.72;6256081;22;20016;-83
2022/07/04 05:50:43;;;;;;;8.77;3.03;;;;;;;23.95;nan;95486.91;6257621;22;20119;-83
2022/07/04 05:53:08;;;;;;;11.15;3.30;;;;;;;23.70;nan;95444.88;6256525;22;20466;-82
2022/07/04 05:55:34;;;;;;;12.52;3.65;;;;;;;24.04;nan;95509.16;6260223;22;20015;-82
2022/07/04 05:58:01;;;;;;;9.35;3.53;;;;;;;23.96;nan;95493.06;6256241;22;20666;-83
2022/07/04 06:00:26;;;;;;;9.55;2.95;;;;;;;24.12;nan;95491.13;6261407;22;20057;-82
2022/07/04 06:02:52;;;;;;;15.38;3.72;;;;;;;23.97;nan;95476.47;6259468;22;20019;-83
2022/07/04 06:05:17;;;;;;;5.18;3.00;;;;;;;24.23;nan;95511.97;6262073;22;20023;-83
2022/07/04 06:07:42;;;;;;;10.85;3.33;;;;;;;24.12;nan;95466.75;6261244;22;20003;-83
2022/07/04 06:10:08;;;;;;;13.77;3.33;;;;;;;24.49;nan;95516.78;6260109;22;20364;-83
2022/07/04 06:12:35;;;;;;;7.30;3.35;;;;;;;24.02;nan;95459.19;6258772;22;20124;-83
2022/07/04 06:15:00;;;;;;;5.38;3.15;;;;;;;24.55;nan;95522.75;6260126;22;20331;-83
2022/07/04 06:17:26;;;;;;;12.23;3.45;;;;;;;24.22;nan;95496.06;6259361;22;20019;-84
2022/07/04 06:19:51;;;;;;;8.73;3.03;;;;;;;23.51;nan;95386.03;6261822;22;20004;-83
2022/07/04 06:22:17;;;;;;;11.10;3.20;;;;;;;23.70;nan;95461.13;6259592;22;20042;-82
2022/07/04 06:24:42;;;;;;;9.32;3.33;;;;;;;24.29;nan;95506.28;6260831;22;20282;-83
2022/07/04 06:27:08;;;;;;;10.00;3.22;;;;;;;24.08;nan;95460.47;6259416;22;20011;-83
2022/07/04 06:29:33;;;;;;;6.55;3.30;;;;;;;24.04;nan;95492.09;6261249;22;20089;-83
2022/07/04 06:31:58;;;;;;;11.85;3.45;;;;;;;24.37;nan;95518.84;6257240;22;20042;-83
2022/07/04 06:37:08;;;;;;;19.30;4.43;;;;;;;24.56;nan;95508.06;6260591;22;20080;-83
2022/07/04 06:39:33;;;;;;;13.43;4.35;;;;;;;24.29;nan;95458.28;6258565;22;20692;-83
2022/07/04 06:41:59;;;;;;;14.43;4.07;;;;;;;24.33;nan;95480.03;6258586;22;20014;-84
2022/07/04 06:44:24;;;;;;;14.00;3.60;;;;;;;24.40;nan;95510.81;6260693;22;20008;-83
2022/07/04 06:46:50;;;;;;;8.70;3.78;;;;;;;24.52;nan;95494.41;6259005;22;20426;-83
2022/07/04 06:49:16;;;;;;;9.02;3.83;;;;;;;23.95;nan;95405.63;6260088;22;20263;-82
2022/07/04 06:51:42;;;;;;;11.07;3.13;;;;;;;24.79;nan;95503.53;6261071;22;20541;-82
2022/07/04 06:54:07;;;;;;;10.07;3.58;;;;;;;24.50;nan;95450.59;6260348;22;20085;-82
2022/07/04 06:56:33;;;;;;;10.32;3.28;;;;;;;24.92;nan;95506.91;6258338;22;20019;-83
2022/07/04 06:58:59;;;;;;;12.90;3.42;;;;;;;24.84;nan;95483.44;6259438;22;20004;-83
2022/07/04 07:01:24;;;;;;;11.90;4.18;;;;;;;24.79;nan;95476.41;6259726;22;20019;-82
2022/07/04 07:03:50;;;;;;;11.23;3.47;;;;;;;24.68;nan;95431.19;6231181;22;20022;-83
2022/07/04 07:06:16;;;;;;;13.77;3.42;;;;;;;24.92;nan;95461.56;6260606;22;20008;-83
2022/07/04 07:08:41;;;;;;;10.80;3.28;;;;;;;24.66;nan;95393.59;6232578;22;20088;-83
2022/07/04 07:11:13;;;;;;;15.75;3.50;;;;;;;25.34;nan;95486.00;6233802;22;20032;-83
2022/07/04 07:13:47;;;;;;;10.32;3.53;;;;;;;24.74;nan;95394.50;6262684;22;20351;-83
2022/07/04 07:16:13;;;;;;;9.77;3.75;;;;;;;25.25;nan;95452.88;6233347;22;20012;-82
2022/07/04 07:18:39;;;;;;;10.18;3.83;;;;;;;25.59;nan;95491.13;6259705;22;20018;-82
2022/07/04 07:21:04;;;;;;;10.10;3.90;;;;;;;25.44;nan;95459.41;6233430;22;20016;-82
2022/07/04 07:23:30;;;;;;;8.32;3.47;;;;;;;24.89;nan;95361.88;6232958;22;20019;-83
2022/07/04 07:25:55;;;;;;;7.30;3.63;;;;;;;25.68;nan;95483.53;6232763;22;20019;-82
2022/07/04 07:28:21;;;;;;;12.93;3.90;;;;;;;25.55;nan;95444.09;6260362;22;20081;-82
2022/07/04 07:30:46;;;;;;;9.02;3.60;;;;;;;25.48;nan;95463.75;6258828;22;20026;-82
2022/07/04 07:33:12;;;;;;;10.32;3.72;;;;;;;25.22;nan;95402.03;6259974;22;20390;-82
2022/07/04 07:35:37;;;;;;;16.70;6.57;;;;;;;25.28;nan;95416.88;6231338;22;20113;-82
2022/07/04 07:38:03;;;;;;;8.50;3.63;;;;;;;25.18;nan;95398.47;6231453;22;20076;-82
2022/07/04 07:40:29;;;;;;;8.50;4.25;;;;;;;25.45;nan;95436.53;6232064;22;20146;-83
2022/07/04 07:42:54;;;;;;;6.55;3.70;;;;;;;25.05;nan;95371.84;6258243;22;20020;-83
2022/07/04 07:45:20;;;;;;;8.38;3.30;;;;;;;25.48;nan;95408.69;6260037;22;20109;-83
2022/07/04 07:47:46;;;;;;;14.73;4.28;;;;;;;24.88;nan;95308.75;6232607;22;20007;-83
2022/07/04 07:50:12;;;;;;;14.02;4.10;;;;;;;25.66;nan;95418.69;6230805;22;20114;-83
2022/07/04 07:52:38;;;;;;;12.48;4.07;;;;;;;25.64;nan;95412.84;6231998;22;20035;-83
2022/07/04 07:55:04;;;;;;;13.25;3.63;;;;;;;25.73;nan;95421.53;6258683;22;20447;-83
2022/07/04 07:57:30;;;;;;;11.05;3.95;;;;;;;25.32;nan;95363.44;6259693;22;20397;-83
2022/07/04 07:59:56;;;;;;;6.50;4.07;;;;;;;25.66;nan;95417.91;6259206;22;20082;-83
2022/07/04 08:05:06;;;;;;;9.63;4.40;;;;;;;25.87;nan;95431.03;6260369;22;20366;-84
2022/07/04 08:07:31;;;;;;;9.82;4.45;;;;;;;25.81;nan;95391.75;6232333;22;20351;-83
2022/07/04 08:09:57;;;;;;;8.00;4.18;;;;;;;26.00;nan;95411.47;6258928;22;20026;-83
2022/07/04 08:12:22;;;;;;;11.65;4.78;;;;;;;26.42;nan;95459.44;6259835;22;20980;-83
2022/07/04 08:14:48;;;;;;;10.05;4.65;;;;;;;26.40;nan;95448.16;6257909;22;20007;-83
2022/07/04 08:17:13;;;;;;;13.23;4.90;;;;;;;26.15;nan;95412.47;6258723;22;20007;-83
2022/07/04 08:19:39;;;;;;;10.77;4.68;;;;;;;26.03;nan;95413.44;6259286;22;20368;-84
2022/07/04 08:22:04;;;;;;;10.27;4.13;;;;;;;26.55;nan;95458.06;6258416;22;20012;-83
2022/07/04 08:24:30;;;;;;;9.10;4.00;;;;;;;26.13;nan;95382.13;6258516;22;20031;-84
2022/07/04 08:26:55;;;;;;;8.60;4.88;;;;;;;26.56;nan;95432.44;6230812;22;20012;-83
2022/07/04 08:29:21;;;;;;;9.98;4.70;;;;;;;26.40;nan;95410.09;6230849;22;20115;-83
2022/07/04 08:31:47;;;;;;;8.75;4.75;;;;;;;26.44;nan;95391.91;6231367;22;20038;-83
2022/07/04 08:34:13;;;;;;;7.47;4.55;;;;;;;26.59;nan;95401.78;6259351;22;20439;-83
2022/07/04 08:36:39;;;;;;;11.15;4.80;;;;;;;26.61;nan;95404.94;6259305;22;20008;-83
2022/07/04 08:39:05;;;;;;;8.00;5.20;;;;;;;26.55;nan;95394.75;6231945;22;20128;-83
2022/07/04 08:41:37;;;;;;;6.60;4.72;;;;;;;26.47;nan;95391.16;6259891;22;20008;-83
2022/07/04 08:44:04;;;;;;;10.10;4.88;;;;;;;26.99;nan;95444.66;6259405;22;20095;-83
2022/07/04 08:46:30;;;;;;;8.80;5.30;;;;;;;26.64;nan;95401.47;6260608;22;20078;-83
2022/07/04 08:49:01;;;;;;;12.57;4.82;;;;;;;26.91;nan;95409.59;6229975;22;20011;-84
2022/07/04 08:51:45;;;;;;;;;;;;;;;27.07;nan;95432.72;6259592;22;20477;-83
2022/07/04 08:59:45;;;;;;;17.60;5.10;;;;;;;27.30;nan;95432.56;6258793;22;20034;-83
2022/07/04 09:02:13;;;;;;;11.40;5.03;;;;;;;27.15;nan;95400.91;6207039;22;20034;-84
2022/07/04 09:04:40;;;;;;;15.70;5.05;;;;;;;27.03;nan;95382.88;6259289;22;20018;-83
2022/07/04 09:07:06;;;;;;;9.23;5.53;;;;;;;27.24;nan;95388.53;6260530;22;20065;-83
2022/07/04 09:09:32;;;;;;;8.48;5.38;;;;;;;27.07;nan;95364.66;6260827;22;20408;-83
2022/07/04 09:11:58;;;;;;;9.98;5.10;;;;;;;27.02;nan;95350.59;6260309;22;20050;-83
2022/07/04 09:14:23;;;;;;;21.17;5.65;;;;;;;27.43;nan;95408.53;6259111;22;20209;-84
2022/07/04 09:16:51;;;;;;;11.18;6.10;;;;;;;26.97;nan;95346.28;6232887;22;20469;-84
2022/07/04 09:19:21;;;;;;;8.35;5.03;;;;;;;27.57;nan;95430.47;6231427;22;20069;-83
2022/07/04 09:21:49;;;;;;;15.63;5.85;;;;;;;27.45;nan;95392.63;6232921;22;20077;-84
2022/07/04 09:24:15;;;;;;;16.85;6.40;;;;;;;27.36;nan;95376.59;6259401;22;20103;-83
2022/07/04 09:26:45;;;;;;;7.05;5.00;;;;;;;27.55;nan;95403.63;6232042;22;20051;-83
2022/07/04 09:29:12;;;;;;;15.35;6.00;;;;;;;27.52;nan;95422.63;6232044;22;20078;-83
2022/07/04 09:31:38;;;;;;;13.77;5.43;;;;;;;27.14;nan;95342.16;6230789;22;20459;-83
2022/07/04 09:34:06;;;;;;;7.32;5.10;;;;;;;27.40;nan;95365.72;6257410;22;20012;-83
2022/07/04 09:36:33;;;;;;;11.85;5.57;;;;;;;27.09;nan;95305.16;6261481;22;20014;-83
2022/07/04 09:39:12;;;;;;;9.65;5.80;;;;;;;27.69;nan;95355.88;6258926;22;20012;-83
2022/07/04 09:41:53;;;;;;;8.32;5.07;;;;;;;28.05;nan;95409.44;6231724;22;20008;-82
2022/07/04 09:44:19;;;;;;;12.23;5.25;;;;;;;28.16;nan;95406.81;6232143;22;20022;-83
2022/07/04 09:46:45;;;;;;;10.77;5.50;;;;;;;28.12;nan;95378.72;6259684;22;20404;-84
2022/07/04 09:49:11;;;;;;;11.18;5.65;;;;;;;28.75;nan;95400.91;6231765;22;20038;-83
2022/07/04 09:51:45;;;;;;;7.03;5.43;;;;;;;29.53;nan;95405.78;6232227;22;20019;-84
2022/07/04 09:54:15;;;;;;;8.93;5.13;;;;;;;30.59;nan;95402.94;6230680;22;20016;-83
2022/07/04 09:56:46;;;;;;;14.45;4.60;;;;;;;31.41;nan;95370.44;6230694;22;20031;-83
2022/07/04 09:59:11;;;;;;;13.38;5.45;;;;;;;31.76;nan;95325.53;6260280;22;20018;-83
2022/07/04 10:01:39;;;;;;;11.90;5.05;;;;;;;32.69;nan;95330.03;6260951;22;20011;-82
2022/07/04 10:04:04;;;;;;;8.80;4.85;;;;;;;33.97;nan;95403.16;6261194;22;20452;-83
2022/07/04 10:06:33;;;;;;;6.60;5.00;;;;;;;34.44;nan;95374.41;6234593;22;20011;-83
2022/07/04 10:09:16;;;;;;;12.48;4.70;;;;;;;34.39;nan;95324.59;6232674;22;20092;-83
2022/07/04 10:11:44;;;;;;;8.40;5.20;;;;;;;35.52;nan;95404.06;6233060;22;20024;-83
2022/07/04 10:14:11;;;;;;;7.60;4.78;;;;;;;36.19;nan;95394.19;6259651;22;20061;-84
2022/07/04 10:16:38;;;;;;;9.55;4.70;;;;;;;36.61;nan;95395.03;6233818;22;20007;-83
2022/07/04 10:19:05;;;;;;;6.90;4.65;;;;;;;36.90;nan;95397.78;6258826;22;20479;-83
2022/07/04 10:21:32;;;;;;;8.18;4.75;;;;;;;36.89;nan;95387.94;6232766;22;20012;-83
2022/07/04 10:23:58;;;;;;;10.40;5.22;;;;;;;36.86;nan;95335.53;6233131;22;20019;-83
2022/07/04 10:26:24;;;;;;;7.75;4.93;;;;;;;37.20;nan;95398.53;6260523;22;20306;-83
2022/07/04 10:28:53;;;;;;;13.88;5.07;;;;;;;37.11;nan;95374.25;6233691;22;20015;-82
2022/07/04 10:31:22;;;;;;;16.83;4.87;;;;;;;37.01;nan;95389.94;6231719;22;20016;-83
2022/07/04 10:33:49;;;;;;;6.88;4.38;;;;;;;37.04;nan;95369.72;6233107;22;20293;-83
2022/07/04 10:36:20;;;;;;;8.98;4.50;;;;;;;36.87;nan;95304.69;6260805;22;20016;-83
2022/07/04 10:38:59;;;;;;;8.63;4.28;;;;;;;37.35;nan;95383.06;6261851;22;20429;-83
2022/07/04 10:41:27;;;;;;;16.83;4.78;;;;;;;37.37;nan;95383.38;6260682;22;20004;-83
2022/07/04 10:44:05;;;;;;;8.00;5.40;;;;;;;37.20;nan;95366.13;6233929;22;20003;-83
2022/07/04 10:46:32;;;;;;;6.85;4.93;;;;;;;37.67;nan;95377.31;6260196;22;20007;-83
2022/07/04 10:49:04;;;;;;;10.98;5.20;;;;;;;37.84;nan;95380.72;6232649;22;20093;-82
2022/07/04 10:51:39;;;;;;;8.23;4.80;;;;;;;37.86;nan;95375.50;6231132;22;20012;-83
2022/07/04 10:54:23;;;;;;;11.30;4.68;;;;;;;37.54;nan;95370.97;6259194;22;20011;-83
2022/07/04 10:57:20;;;;;;;9.38;5.05;;;;;;;37.64;nan;95367.13;6259110;22;20050;-83
2022/07/04 10:59:52;;;;;;;5.30;4.35;;;;;;;37.96;nan;95357.78;6260520;22;20093;-83
2022/07/04 11:02:22;;;;;;;10.82;4.60;;;;;;;37.83;nan;95359.81;6259892;22;20007;-83
2022/07/04 11:04:50;;;;;;;8.52;4.43;;;;;;;37.83;nan;95337.66;6233695;22;20020;-83
2022/07/04 11:07:18;;;;;;;12.15;4.47;;;;;;;37.62;nan;95308.69;6231854;22;20011;-84
2022/07/04 11:09:44;;;;;;;9.10;4.80;;;;;;;37.72;nan;95329.69;6232230;22;20020;-83
2022/07/04 11:12:12;;;;;;;10.30;5.35;;;;;;;37.82;nan;95311.19;6259317;22;20012;-83
2022/07/04 11:14:43;;;;;;;10.77;4.65;;;;;;;37.92;nan;95287.91;6233267;22;20043;-83
2022/07/04 11:17:20;;;;;;;9.48;4.78;;;;;;;37.83;nan;95327.38;6258300;22;20354;-83
2022/07/04 11:19:46;;;;;;;7.53;4.50;;;;;;;37.67;nan;95288.00;6232957;22;20026;-83
2022/07/04 11:22:22;;;;;;;7.97;4.47;;;;;;;38.56;nan;95335.53;6234408;22;20015;-84
2022/07/04 11:24:48;;;;;;;7.97;4.82;;;;;;;37.96;nan;95274.72;6261235;22;20011;-84
2022/07/04 11:27:13;;;;;;;6.57;4.40;;;;;;;38.08;nan;95301.59;6232614;22;20024;-83
2022/07/04 11:29:49;;;;;;;8.43;4.75;;;;;;;38.49;nan;95342.13;6260473;22;20023;-84
2022/07/04 11:32:15;;;;;;;7.15;4.60;;;;;;;38.04;nan;95295.44;6233209;22;20469;-83
2022/07/04 11:34:40;;;;;;;7.53;4.32;;;;;;;38.15;nan;95293.03;6231985;22;20015;-83
2022/07/04 11:37:06;;;;;;;7.03;4.43;;;;;;;38.33;nan;95306.25;6260763;22;20004;-84
2022/07/04 11:39:31;;;;;;;12.02;4.97;;;;;;;38.53;nan;95292.09;6233509;22;20016;-84
2022/07/04 11:47:40;;;;;;;6.60;4.55;;;;;;;38.44;nan;95344.66;6259629;22;20019;-84
2022/07/04 11:50:19;;;;;;;11.55;5.32;;;;;;;38.08;nan;95284.97;6259027;22;20490;-83
2022/07/04 11:52:53;;;;;;;10.93;4.93;;;;;;;38.43;nan;95320.97;6259825;22;20008;-83
2022/07/04 11:55:19;;;;;;;10.82;5.13;;;;;;;38.24;nan;95300.66;6259264;22;20435;-83
2022/07/04 11:57:47;;;;;;;8.55;4.60;;;;;;;38.36;nan;95310.91;6245609;22;20024;-83
2022/07/04 12:00:15;;;;;;;10.00;4.88;;;;;;;37.86;nan;95262.00;6260437;22;20041;-84
2022/07/04 12:02:42;;;;;;;10.80;5.18;;;;;;;38.39;nan;95290.59;6261072;22;20117;-83
2022/07/04 12:05:10;;;;;;;13.85;5.22;;;;;;;38.81;nan;95310.44;6260905;22;20009;-85
2022/07/04 12:07:38;;;;;;;9.30;4.88;;;;;;;38.77;nan;95301.47;6258654;22;20015;-83
2022/07/04 12:10:15;;;;;;;9.75;4.53;;;;;;;38.74;nan;95294.09;6258138;22;20107;-84